Latest Weather Observations for Gladstone Airport

IDQ60801

Issued at 11:02 am EST Wednesday 1 April 2015 (issued every 30 minutes, with the page automatically refreshed every 10 minutes)

About weather observations | Map of weather stations | Latest weather observations for QLD | Other Formats
Station Details ID: 039326 Name: GLADSTONE AIRPORT Lat: -23.87 Lon: 151.22 Height: 16.6 m
Data from the previous 72 hours. | See also: Recent months at Gladstone Airport
Date/Time
EST
Temp
°C
App
Temp
°C
Dew
Point
Rel
Hum
%
Delta-T
°C
Wind Press
QNH
hPa
Press
MSL
hPa
Rain
since 9 am
mm
Dir
 
Spd
km/h
Gust
km/h
Spd
kts
Gust
kts
01/11:00am 24.8 23.6 18.5 68 4.0 SE 22 32 12 17 1017.9 1017.9 0.0
01/10:30am 24.7 24.2 19.1 71 3.6 SE 20 28 11 15 1018.2 1018.2 0.0
01/10:00am 24.4 23.7 18.6 70 3.7 SE 20 30 11 16 1018.5 1018.5 0.0
01/09:30am 23.5 23.3 18.4 73 3.2 SSE 17 28 9 15 1018.7 1018.6 0.0
01/09:00am 23.4 22.8 18.5 74 3.1 SSE 19 30 10 16 1018.6 1018.5 6.0
01/08:30am 23.0 23.1 18.3 75 2.9 SSE 15 22 8 12 1018.6 1018.5 6.0
01/08:00am 22.4 22.2 18.4 78 2.5 SE 17 24 9 13 1018.1 1018.0 6.0
01/07:30am 22.2 22.0 18.6 80 2.3 SSE 17 26 9 14 1017.5 1017.4 6.0
01/07:00am 22.3 22.6 18.7 80 2.3 SSE 15 24 8 13 1017.3 1017.2 6.0
01/06:30am 21.6 23.1 18.8 84 1.8 S 9 11 5 6 1017.1 1017.0 6.0
01/06:00am 21.6 23.0 18.6 83 1.9 SSW 9 13 5 7 1017.1 1017.0 6.0
01/05:30am 21.7 23.6 18.9 84 1.8 SSW 7 13 4 7 1016.9 1016.8 6.0
01/05:00am 21.6 23.1 18.8 84 1.8 S 9 13 5 7 1016.6 1016.5 6.0
01/04:30am 21.5 22.5 18.7 84 1.8 SSW 11 19 6 10 1016.3 1016.2 6.0
01/04:00am 21.6 22.2 18.6 83 1.9 SSW 13 19 7 10 1016.3 1016.2 6.0
01/03:30am 21.4 22.8 18.6 84 1.8 SSW 9 15 5 8 1016.0 1015.9 6.0
01/03:00am 21.3 22.8 18.9 86 1.5 S 9 13 5 7 1016.2 1016.1 6.0
01/02:30am 21.2 22.7 18.8 86 1.5 SSW 9 15 5 8 1016.5 1016.4 6.0
01/02:00am 20.9 22.3 18.7 87 1.4 SSW 9 15 5 8 1017.1 1017.0 6.0
01/01:30am 21.0 22.2 18.2 84 1.7 S 9 15 5 8 1017.4 1017.3 6.0
01/01:00am 21.0 21.6 18.6 86 1.5 SSE 13 24 7 13 1017.2 1017.1 5.4
 
Date/Time
EST
Temp
°C
App
Temp
°C
Dew
Point
Rel
Hum
%
Delta-T
°C
Wind Press
QNH
hPa
Press
MSL
hPa
Rain
since 9 am
mm
Dir
 
Spd
km/h
Gust
km/h
Spd
kts
Gust
kts
31/11:30pm 22.4 23.6 18.2 77 2.6 SSE 9 17 5 9 1019.3 1019.3 3.2
31/11:00pm 22.0 21.8 18.6 81 2.1 SSE 17 24 9 13 1018.5 1018.4 3.2
31/10:30pm 21.7 21.6 18.7 83 1.9 SSE 17 24 9 13 1018.7 1018.6 3.2
31/10:00pm 21.3 21.6 18.7 85 1.6 S 15 26 8 14 1019.3 1019.3 3.2
31/09:30pm 21.7 21.9 19.3 86 1.5 SE 17 24 9 13 1019.7 1019.7 3.0
31/09:00pm 22.2 23.3 19.6 85 1.7 SE 13 19 7 10 1019.7 1019.7 2.6
31/08:30pm 23.0 23.1 19.2 79 2.4 SE 17 22 9 12 1019.6 1019.6 1.4
31/08:00pm 24.2 24.6 19.1 73 3.2 ESE 15 19 8 10 1019.5 1019.5 0.2
31/07:30pm 24.6 24.6 18.1 67 4.1 ESE 15 22 8 12 1019.0 1018.9 0.0
31/07:00pm 24.6 24.6 18.1 67 4.1 SE 15 20 8 11 1018.5 1018.4 0.0
31/06:30pm 24.9 25.0 17.4 63 4.7 SE 13 17 7 9 1018.5 1018.4 0.0
31/06:00pm 26.2 24.3 15.3 51 6.6 SE 19 26 10 14 1018.0 1017.9 0.0
31/05:30pm 26.9 24.8 15.3 49 7.0 SE 20 30 11 16 1017.8 1017.7 0.0
31/05:00pm 27.1 25.5 16.4 52 6.6 SE 20 33 11 18 1017.0 1016.9 0.0
31/04:30pm 27.4 26.1 17.3 54 6.3 ESE 20 32 11 17 1016.8 1016.7 0.0
31/04:00pm 27.6 25.0 17.7 54 6.2 ESE 28 37 15 20 1016.4 1016.3 0.0
31/03:30pm 27.8 25.4 17.3 52 6.6 ESE 26 33 14 18 1016.5 1016.4 0.0
31/03:00pm 28.6 26.5 18.1 53 6.7 E 26 35 14 19 1016.8 1016.7 0.0
31/02:30pm 28.8 26.7 18.0 52 6.9 ESE 26 33 14 18 1017.0 1016.9 0.0
31/02:00pm 28.6 26.6 18.4 54 6.5 ESE 26 35 14 19 1017.2 1017.1 0.0
31/01:30pm 29.1 26.8 18.5 52 6.8 ESE 28 37 15 20 1017.5 1017.4 0.0
31/01:00pm 28.4 27.6 18.5 55 6.3 SE 20 32 11 17 1018.0 1017.9 0.0
31/12:30pm 27.3 26.6 18.3 58 5.7 SE 19 28 10 15 1018.8 1018.7 0.0
31/12:00pm 29.0 26.7 19.3 55 6.3 ESE 30 39 16 21 1018.8 1018.7 0.0
31/11:30am 28.4 26.4 19.1 57 6.0 ESE 28 41 15 22 1019.3 1019.3 0.0
31/11:00am 28.1 26.7 19.6 60 5.5 ESE 26 35 14 19 1019.7 1019.7 0.0
31/10:30am 27.4 26.0 18.9 59 5.5 ESE 24 37 13 20 1020.3 1020.3 0.0
31/10:00am 26.8 26.4 18.9 62 5.1 SE 19 32 10 17 1020.5 1020.5 0.0
31/09:30am 26.5 26.0 18.6 62 5.0 SE 19 32 10 17 1020.5 1020.5 0.0
31/09:00am 25.5 24.8 18.7 66 4.3 SE 20 32 11 17 1020.5 1020.5 0.0
31/08:30am 24.6 24.5 18.8 70 3.7 SSE 17 26 9 14 1020.4 1020.4 0.0
31/08:00am 24.2 24.5 18.8 72 3.4 SE 15 24 8 13 1020.1 1020.1 0.0
31/07:30am 23.4 22.6 18.5 74 3.1 SSE 20 28 11 15 1019.7 1019.7 0.0
31/07:00am 22.4 22.8 18.2 77 2.6 SSE 13 24 7 13 1019.6 1019.6 0.0
31/06:30am 22.0 22.3 18.0 78 2.5 SSE 13 20 7 11 1019.3 1019.3 0.0
31/06:00am 21.8 22.9 18.0 79 2.4 SSE 9 17 5 9 1019.2 1019.1 0.0
31/05:30am 21.9 22.6 17.9 78 2.5 SSE 11 19 6 10 1018.8 1018.7 0.0
31/05:00am 22.0 22.6 17.8 77 2.6 SSE 11 19 6 10 1018.7 1018.6 0.0
31/04:30am 22.1 22.7 17.7 76 2.7 SSE 11 17 6 9 1018.7 1018.6 0.0
31/04:00am 22.3 22.6 17.9 76 2.7 SSE 13 20 7 11 1018.5 1018.4 0.0
31/03:30am 22.3 22.9 17.7 75 2.9 SSE 11 17 6 9 1018.5 1018.4 0.0
31/03:00am 22.4 23.0 17.8 75 2.9 SSE 11 17 6 9 1018.7 1018.6 0.0
31/02:30am 22.7 23.3 17.8 74 3.0 SSE 11 15 6 8 1018.9 1018.8 0.0
31/02:00am 22.9 23.5 17.8 73 3.2 SSE 11 20 6 11 1019.2 1019.1 0.0
31/01:30am 22.9 23.5 17.6 72 3.3 SSE 11 17 6 9 1019.6 1019.6 0.0
31/01:00am 23.0 23.9 17.5 71 3.4 SSE 9 15 5 8 1019.9 1019.9 0.0
31/12:30am 23.1 23.8 17.1 69 3.7 SSE 9 13 5 7 1020.2 1020.2 0.0
31/12:00am 23.3 24.0 17.1 68 3.8 SSE 9 15 5 8 1020.4 1020.4 0.0
 
Date/Time
EST
Temp
°C
App
Temp
°C
Dew
Point
Rel
Hum
%
Delta-T
°C
Wind Press
QNH
hPa
Press
MSL
hPa
Rain
since 9 am
mm
Dir
 
Spd
km/h
Gust
km/h
Spd
kts
Gust
kts
30/11:30pm 23.0 23.8 17.2 70 3.6 SSE 9 11 5 6 1020.5 1020.5 0.0
30/11:00pm 23.3 24.1 17.3 69 3.7 SSE 9 13 5 7 1020.8 1020.8 0.0
30/10:30pm 23.9 24.7 17.4 67 4.0 SE 9 17 5 9 1020.9 1020.9 0.0
30/10:00pm 23.7 25.1 17.4 68 3.9 SE 6 9 3 5 1021.1 1021.1 0.0
30/09:30pm 24.5 25.0 17.5 65 4.4 SE 11 19 6 10 1021.3 1021.3 0.0
30/09:00pm 24.5 25.1 17.7 66 4.2 SSE 11 17 6 9 1021.2 1021.2 0.0
30/08:30pm 24.9 25.6 17.9 65 4.4 SSE 11 15 6 8 1021.1 1021.1 0.0
30/08:00pm 25.6 25.4 17.5 61 5.1 SE 15 24 8 13 1020.7 1020.7 0.0
30/07:30pm 25.7 25.3 18.1 63 4.8 ESE 17 26 9 14 1020.3 1020.3 0.0
30/07:00pm 25.8 24.7 17.7 61 5.1 ESE 20 26 11 14 1020.0 1020.0 0.0
30/06:30pm 25.9 24.9 17.5 59 5.3 ESE 19 26 10 14 1019.8 1019.8 0.0
30/06:00pm 26.3 24.4 17.6 58 5.5 ESE 24 32 13 17 1019.5 1019.5 0.0
30/05:30pm 27.0 24.9 17.2 55 6.1 ESE 24 33 13 18 1019.3 1019.3 0.0
30/05:00pm 27.3 24.8 17.2 54 6.3 E 26 37 14 20 1018.9 1018.8 0.0
30/04:30pm 28.1 25.1 16.7 50 7.1 ESE 28 39 15 21 1018.9 1018.8 0.0
30/04:00pm 28.3 26.0 17.5 52 6.8 E 26 35 14 19 1018.4 1018.3 0.0
30/03:30pm 28.5 24.8 16.1 47 7.7 ESE 30 39 16 21 1018.3 1018.2 0.0
30/03:00pm 28.9 25.3 17.1 49 7.4 ESE 32 43 17 23 1018.3 1018.2 0.0
30/02:30pm 29.4 26.2 17.2 47 7.7 E 30 39 16 21 1018.4 1018.3 0.0
30/02:00pm 29.5 26.0 15.6 43 8.5 ESE 28 37 15 20 1018.6 1018.5 0.0
30/01:30pm 29.0 25.8 17.2 49 7.4 E 30 37 16 20 1018.9 1018.8 0.0
30/01:00pm 29.4 25.8 17.2 47 7.7 ESE 32 43 17 23 1019.3 1019.3 0.0
30/12:30pm 28.8 24.9 17.0 49 7.4 E 33 41 18 22 1019.6 1019.6 0.0
30/12:00pm 28.9 26.0 17.1 49 7.4 ESE 28 39 15 21 1020.2 1020.2 0.0
30/11:30am 28.6 25.8 17.2 50 7.2 ESE 28 37 15 20 1020.8 1020.8 0.0
30/11:00am 28.6 26.3 18.4 54 6.5 ESE 28 39 15 21 1021.4 1021.4 0.0
30/10:30am 28.0 25.3 17.5 52 6.6 ESE 28 41 15 22 1021.6 1021.6 0.0
30/10:00am 28.2 25.2 17.7 53 6.6 ESE 30 44 16 24 1021.5 1021.5 0.0
30/09:30am 27.0 25.4 17.5 56 6.0 SE 22 32 12 17 1021.8 1021.8 0.0
30/09:00am 26.6 25.4 17.4 57 5.7 SE 20 30 11 16 1021.8 1021.8 0.6
30/08:30am 25.7 25.2 17.9 62 4.9 SE 17 26 9 14 1021.5 1021.5 0.6
30/08:00am 24.9 24.8 17.9 65 4.4 SE 15 24 8 13 1021.3 1021.3 0.6
30/07:30am 24.0 23.8 17.5 67 4.0 SE 15 24 8 13 1020.8 1020.8 0.6
30/07:00am 23.3 23.7 17.3 69 3.7 SSE 11 20 6 11 1020.4 1020.4 0.6
30/06:30am 22.5 23.3 17.4 73 3.1 SSE 9 15 5 8 1020.2 1020.2 0.6
30/06:00am 21.4 22.5 17.2 77 2.6 S 7 11 4 6 1020.1 1020.1 0.6
30/05:30am 21.4 22.6 16.8 75 2.8 SSW 6 9 3 5 1019.9 1019.9 0.6
30/05:00am 21.8 22.9 17.2 75 2.8 S 7 11 4 6 1019.7 1019.7 0.6
30/04:30am 21.9 23.0 17.1 74 2.9 S 7 9 4 5 1019.4 1019.4 0.6
30/04:00am 22.2 22.9 17.1 73 3.1 S 9 13 5 7 1019.2 1019.1 0.6
30/03:30am 22.6 23.4 17.3 72 3.3 S 9 13 5 7 1019.3 1019.3 0.6
30/03:00am 23.1 24.3 17.3 70 3.6 SSE 7 13 4 7 1019.5 1019.5 0.6
30/02:30am 23.5 24.0 17.5 69 3.7 SSE 11 17 6 9 1019.6 1019.6 0.6
30/02:00am 23.6 24.0 17.3 67 3.9 SSE 11 15 6 8 1019.6 1019.6 0.6
30/01:30am 23.8 24.6 17.3 67 4.0 S 9 17 5 9 1019.8 1019.8 0.6
30/01:00am 24.0 24.9 17.5 67 4.0 SSE 9 15 5 8 1020.1 1020.1 0.6
30/12:30am 24.3 24.9 17.8 67 4.1 SSE 11 17 6 9 1020.4 1020.4 0.6
30/12:00am 24.6 25.4 18.1 67 4.1 SSE 11 17 6 9 1020.5 1020.5 0.6
 
Date/Time
EST
Temp
°C
App
Temp
°C
Dew
Point
Rel
Hum
%
Delta-T
°C
Wind Press
QNH
hPa
Press
MSL
hPa
Rain
since 9 am
mm
Dir
 
Spd
km/h
Gust
km/h
Spd
kts
Gust
kts
29/11:30pm 24.9 25.7 18.1 66 4.3 SE 11 15 6 8 1020.7 1020.7 0.6
29/11:00pm 25.2 25.6 18.2 65 4.4 SE 13 20 7 11 1021.0 1021.0 0.6
29/10:30pm 25.3 25.7 18.2 64 4.5 SE 13 20 7 11 1021.0 1021.0 0.6
29/10:00pm 25.6 26.1 18.3 64 4.6 SE 13 20 7 11 1020.9 1020.9 0.6
29/09:30pm 25.6 25.7 18.3 64 4.6 SE 15 22 8 12 1020.9 1020.9 0.6
29/09:00pm 25.8 25.8 18.2 63 4.8 SE 15 20 8 11 1021.0 1021.0 0.6
29/08:30pm 25.9 25.6 18.3 63 4.8 SE 17 26 9 14 1021.0 1021.0 0.6
29/08:00pm 25.9 25.5 18.1 62 4.9 SE 17 24 9 13 1020.8 1020.8 0.6
29/07:30pm 26.0 25.9 17.9 61 5.1 SE 15 24 8 13 1020.7 1020.7 0.6
29/07:00pm 26.2 25.7 17.8 60 5.3 SE 17 24 9 13 1020.5 1020.5 0.6
29/06:30pm 26.3 25.7 17.6 58 5.5 SE 17 30 9 16 1020.2 1020.2 0.6
29/06:00pm 26.3 26.6 17.9 60 5.3 SE 13 20 7 11 1019.9 1019.9 0.6
29/05:30pm 26.8 25.6 17.6 57 5.8 ESE 20 33 11 18 1019.6 1019.6 0.6
29/05:00pm 26.6 26.3 18.2 60 5.3 SE 17 24 9 13 1019.5 1019.5 0.6
29/04:30pm 26.6 26.6 19.0 63 4.9 SE 17 22 9 12 1019.2 1019.1 0.6
29/04:00pm 27.0 27.6 19.4 63 4.9 SE 15 22 8 12 1019.2 1019.1 0.6
29/03:30pm 26.2 27.0 19.8 68 4.2 SE 15 22 8 12 1019.1 1019.0 0.6
29/03:00pm 26.6 26.8 20.2 68 4.2 SE 19 28 10 15 1019.2 1019.1 0.6
29/02:30pm 26.4 26.6 20.5 70 3.9 SE 20 35 11 19 1019.3 1019.3 0.6
29/02:00pm 25.9 26.7 20.7 73 3.4 SE 17 26 9 14 1019.4 1019.4 0.6
29/01:30pm 24.7 26.6 21.4 82 2.2 SE 13 19 7 10 1019.8 1019.8 0.6
29/01:08pm 23.6 24.8 21.5 88 1.4 SE 17 24 9 13 1020.1 1020.1 0.6
29/01:00pm 23.8 25.0 22.1 90 1.1 SE 19 30 10 16 1020.2 1020.2 0.6
29/12:44pm 24.0 24.1 21.9 88 1.4 SE 24 33 13 18 1020.4 1020.4 0.2
29/12:30pm 24.3 24.4 20.4 79 2.5 SE 20 33 11 18 1020.4 1020.4 0.2
29/12:00pm 27.3 27.2 19.9 64 4.8 SE 20 30 11 16 1020.3 1020.3 0.0
29/11:30am 27.6 28.9 20.9 67 4.4 SE 15 22 8 12 1020.6 1020.6 0.0

Other Formats:

Comma delimited format used in spreadsheet applications
http://www.bom.gov.au/fwo/IDQ60801/IDQ60801.94381.axf

JavaScript Object Notation format (JSON) in row-major order
http://www.bom.gov.au/fwo/IDQ60801/IDQ60801.94381.json